sensor_id;sensor_type;location;lat;lon;timestamp;pressure;altitude;pressure_sealevel;temperature;humidity
34506;BME280;20748;42.632;23.198;2024-02-15T00:01:20;92357.88;;;2.32;81.62
34506;BME280;20748;42.632;23.198;2024-02-15T00:03:54;92351.13;;;2.26;82.46
34506;BME280;20748;42.632;23.198;2024-02-15T00:06:29;92359.63;;;2.26;82.93
34506;BME280;20748;42.632;23.198;2024-02-15T00:09:03;92352.72;;;2.32;82.45
34506;BME280;20748;42.632;23.198;2024-02-15T00:11:38;92354.00;;;2.30;82.51
34506;BME280;20748;42.632;23.198;2024-02-15T00:14:12;92347.84;;;2.31;83.05
34506;BME280;20748;42.632;23.198;2024-02-15T00:16:46;92352.72;;;2.32;82.52
34506;BME280;20748;42.632;23.198;2024-02-15T00:19:19;92356.56;;;2.30;82.72
34506;BME280;20748;42.632;23.198;2024-02-15T00:21:54;92350.41;;;2.31;82.96
34506;BME280;20748;42.632;23.198;2024-02-15T00:24:28;92352.13;;;2.25;82.91
34506;BME280;20748;42.632;23.198;2024-02-15T00:27:04;92352.91;;;2.25;82.82
34506;BME280;20748;42.632;23.198;2024-02-15T00:29:38;92357.28;;;2.25;81.94
34506;BME280;20748;42.632;23.198;2024-02-15T00:32:13;92363.22;;;2.25;82.22
34506;BME280;20748;42.632;23.198;2024-02-15T00:34:47;92358.88;;;2.09;82.13
34506;BME280;20748;42.632;23.198;2024-02-15T00:37:21;92358.38;;;2.12;82.11
34506;BME280;20748;42.632;23.198;2024-02-15T00:39:54;92354.81;;;2.13;82.65
34506;BME280;20748;42.632;23.198;2024-02-15T00:42:29;92367.13;;;2.11;83.76
34506;BME280;20748;42.632;23.198;2024-02-15T00:45:04;92360.66;;;2.08;85.49
34506;BME280;20748;42.632;23.198;2024-02-15T00:47:38;92365.28;;;2.06;86.30
34506;BME280;20748;42.632;23.198;2024-02-15T00:50:14;92360.97;;;2.12;86.38
34506;BME280;20748;42.632;23.198;2024-02-15T00:52:48;92357.13;;;2.14;86.69
34506;BME280;20748;42.632;23.198;2024-02-15T00:55:22;92359.63;;;2.09;87.04
34506;BME280;20748;42.632;23.198;2024-02-15T00:57:57;92357.06;;;2.09;86.07
34506;BME280;20748;42.632;23.198;2024-02-15T01:00:31;92359.72;;;2.14;85.68
34506;BME280;20748;42.632;23.198;2024-02-15T01:03:04;92356.38;;;2.14;84.40
34506;BME280;20748;42.632;23.198;2024-02-15T01:05:38;92364.25;;;2.07;84.73
34506;BME280;20748;42.632;23.198;2024-02-15T01:08:12;92374.78;;;2.06;84.38
34506;BME280;20748;42.632;23.198;2024-02-15T01:10:45;92372.75;;;2.08;83.03
34506;BME280;20748;42.632;23.198;2024-02-15T01:13:20;92364.75;;;2.04;83.67
34506;BME280;20748;42.632;23.198;2024-02-15T01:15:54;92361.44;;;2.09;84.18
34506;BME280;20748;42.632;23.198;2024-02-15T01:18:28;92359.41;;;2.11;83.16
34506;BME280;20748;42.632;23.198;2024-02-15T01:21:02;92359.41;;;2.11;82.74
34506;BME280;20748;42.632;23.198;2024-02-15T01:25:18;92363.47;;;2.07;82.49
34506;BME280;20748;42.632;23.198;2024-02-15T01:27:52;92357.69;;;1.99;83.29
34506;BME280;20748;42.632;23.198;2024-02-15T01:30:26;92366.97;;;2.00;83.67
34506;BME280;20748;42.632;23.198;2024-02-15T01:33:00;92356.22;;;2.04;83.38
34506;BME280;20748;42.632;23.198;2024-02-15T01:35:35;92351.59;;;2.06;83.54
34506;BME280;20748;42.632;23.198;2024-02-15T01:38:08;92358.09;;;2.08;82.77
34506;BME280;20748;42.632;23.198;2024-02-15T01:40:44;92358.38;;;2.12;83.20
34506;BME280;20748;42.632;23.198;2024-02-15T01:43:19;92348.88;;;2.12;83.37
34506;BME280;20748;42.632;23.198;2024-02-15T01:45:54;92354.25;;;2.11;83.11
34506;BME280;20748;42.632;23.198;2024-02-15T01:48:29;92351.91;;;2.09;83.49
34506;BME280;20748;42.632;23.198;2024-02-15T01:51:03;92351.91;;;2.09;82.80
34506;BME280;20748;42.632;23.198;2024-02-15T01:53:38;92339.38;;;1.96;83.29
34506;BME280;20748;42.632;23.198;2024-02-15T01:56:16;92360.72;;;2.13;83.18
34506;BME280;20748;42.632;23.198;2024-02-15T01:58:50;92361.25;;;2.15;83.49
34506;BME280;20748;42.632;23.198;2024-02-15T02:01:25;92368.22;;;2.15;82.88
34506;BME280;20748;42.632;23.198;2024-02-15T02:04:00;92367.69;;;2.13;82.80
34506;BME280;20748;42.632;23.198;2024-02-15T02:06:34;92371.97;;;2.07;84.11
34506;BME280;20748;42.632;23.198;2024-02-15T02:09:10;92368.59;;;2.07;82.19
34506;BME280;20748;42.632;23.198;2024-02-15T02:11:46;92365.81;;;2.08;81.94
34506;BME280;20748;42.632;23.198;2024-02-15T02:14:23;92366.81;;;2.07;82.47
34506;BME280;20748;42.632;23.198;2024-02-15T02:17:10;92371.66;;;2.04;82.31
34506;BME280;20748;42.632;23.198;2024-02-15T02:19:44;92375.34;;;2.08;81.74
34506;BME280;20748;42.632;23.198;2024-02-15T02:22:19;92372.84;;;2.13;81.13
34506;BME280;20748;42.632;23.198;2024-02-15T02:24:58;92376.09;;;2.08;81.73
34506;BME280;20748;42.632;23.198;2024-02-15T02:27:33;92371.75;;;2.09;81.26
34506;BME280;20748;42.632;23.198;2024-02-15T02:30:13;92363.47;;;2.07;81.83
34506;BME280;20748;42.632;23.198;2024-02-15T02:32:48;92363.47;;;2.07;82.09
34506;BME280;20748;42.632;23.198;2024-02-15T02:35:22;92366.84;;;1.90;81.24
34506;BME280;20748;42.632;23.198;2024-02-15T02:37:56;92373.00;;;1.89;81.47
34506;BME280;20748;42.632;23.198;2024-02-15T02:40:31;92372.06;;;1.95;81.43
34506;BME280;20748;42.632;23.198;2024-02-15T02:43:06;92369.56;;;2.00;81.54
34506;BME280;20748;42.632;23.198;2024-02-15T02:45:39;92364.03;;;1.92;81.76
34506;BME280;20748;42.632;23.198;2024-02-15T02:48:14;92374.16;;;1.98;81.13
34506;BME280;20748;42.632;23.198;2024-02-15T02:50:48;92363.50;;;1.90;81.90
34506;BME280;20748;42.632;23.198;2024-02-15T02:53:22;92377.28;;;2.00;82.19
34506;BME280;20748;42.632;23.198;2024-02-15T02:55:57;92372.59;;;1.97;82.85
34506;BME280;20748;42.632;23.198;2024-02-15T02:58:30;92376.34;;;1.90;83.87
34506;BME280;20748;42.632;23.198;2024-02-15T03:01:04;92376.03;;;1.86;84.18
34506;BME280;20748;42.632;23.198;2024-02-15T03:03:38;92372.75;;;1.91;83.77
34506;BME280;20748;42.632;23.198;2024-02-15T03:06:12;92377.97;;;1.96;83.65
34506;BME280;20748;42.632;23.198;2024-02-15T03:08:46;92375.94;;;1.98;81.96
34506;BME280;20748;42.632;23.198;2024-02-15T03:11:21;92377.69;;;1.92;81.13
34506;BME280;20748;42.632;23.198;2024-02-15T03:13:55;92375.91;;;1.93;81.80
34506;BME280;20748;42.632;23.198;2024-02-15T03:16:30;92379.31;;;1.81;81.62
34506;BME280;20748;42.632;23.198;2024-02-15T03:19:04;92378.84;;;1.84;82.26
34506;BME280;20748;42.632;23.198;2024-02-15T03:21:38;92378.84;;;1.84;81.93
34506;BME280;20748;42.632;23.198;2024-02-15T03:24:12;92389.13;;;1.84;81.96
34506;BME280;20748;42.632;23.198;2024-02-15T03:26:47;92385.81;;;1.84;81.69
34506;BME280;20748;42.632;23.198;2024-02-15T03:29:20;92377.22;;;1.78;81.81
34506;BME280;20748;42.632;23.198;2024-02-15T03:31:55;92391.25;;;1.87;81.44
34506;BME280;20748;42.632;23.198;2024-02-15T03:34:28;92388.44;;;1.89;81.52
34506;BME280;20748;42.632;23.198;2024-02-15T03:37:02;92391.25;;;1.87;81.20
34506;BME280;20748;42.632;23.198;2024-02-15T03:39:36;92385.84;;;1.89;81.12
34506;BME280;20748;42.632;23.198;2024-02-15T03:42:11;92393.25;;;1.85;81.80
34506;BME280;20748;42.632;23.198;2024-02-15T03:44:45;92386.09;;;1.87;82.49
34506;BME280;20748;42.632;23.198;2024-02-15T03:47:20;92385.47;;;1.80;82.03
34506;BME280;20748;42.632;23.198;2024-02-15T03:49:54;92391.94;;;1.83;82.40
34506;BME280;20748;42.632;23.198;2024-02-15T03:52:28;92393.97;;;1.81;82.65
34506;BME280;20748;42.632;23.198;2024-02-15T03:55:02;92390.25;;;1.71;82.06
34506;BME280;20748;42.632;23.198;2024-02-15T03:57:39;92391.16;;;1.65;81.90
34506;BME280;20748;42.632;23.198;2024-02-15T04:00:14;92393.34;;;1.73;82.04
34506;BME280;20748;42.632;23.198;2024-02-15T04:02:48;92391.31;;;1.76;82.17
34506;BME280;20748;42.632;23.198;2024-02-15T04:05:22;92387.66;;;1.71;82.33
34506;BME280;20748;42.632;23.198;2024-02-15T04:07:56;92396.16;;;1.72;81.94
34506;BME280;20748;42.632;23.198;2024-02-15T04:10:30;92394.28;;;1.67;82.87
34506;BME280;20748;42.632;23.198;2024-02-15T04:13:09;92385.59;;;1.56;81.52
34506;BME280;20748;42.632;23.198;2024-02-15T04:15:42;92399.13;;;1.64;80.98
34506;BME280;20748;42.632;23.198;2024-02-15T04:18:19;92398.72;;;1.55;81.14
34506;BME280;20748;42.632;23.198;2024-02-15T04:20:53;92393.72;;;1.48;81.09
34506;BME280;20748;42.632;23.198;2024-02-15T04:23:26;92393.63;;;1.43;82.33
34506;BME280;20748;42.632;23.198;2024-02-15T04:26:01;92396.59;;;1.52;82.48
34506;BME280;20748;42.632;23.198;2024-02-15T04:28:37;92402.31;;;1.54;83.33
34506;BME280;20748;42.632;23.198;2024-02-15T04:31:10;92402.97;;;1.49;82.81
34506;BME280;20748;42.632;23.198;2024-02-15T04:33:45;92408.53;;;1.58;83.07
34506;BME280;20748;42.632;23.198;2024-02-15T04:36:21;92406.19;;;1.56;83.40
34506;BME280;20748;42.632;23.198;2024-02-15T04:38:57;92406.88;;;1.52;82.91
34506;BME280;20748;42.632;23.198;2024-02-15T04:41:30;92403.56;;;1.51;83.02
34506;BME280;20748;42.632;23.198;2024-02-15T04:44:06;92411.88;;;1.58;83.36
34506;BME280;20748;42.632;23.198;2024-02-15T04:46:44;92413.13;;;1.56;82.91
34506;BME280;20748;42.632;23.198;2024-02-15T04:49:18;92415.53;;;1.45;82.72
34506;BME280;20748;42.632;23.198;2024-02-15T04:51:52;92420.75;;;1.51;82.88
34506;BME280;20748;42.632;23.198;2024-02-15T04:54:25;92411.94;;;1.46;82.96
34506;BME280;20748;42.632;23.198;2024-02-15T04:56:59;92416.84;;;1.31;82.89
34506;BME280;20748;42.632;23.198;2024-02-15T04:59:35;92430.41;;;1.43;82.77
34506;BME280;20748;42.632;23.198;2024-02-15T05:02:08;92429.94;;;1.46;82.72
34506;BME280;20748;42.632;23.198;2024-02-15T05:04:42;92424.47;;;1.43;83.04
34506;BME280;20748;42.632;23.198;2024-02-15T05:07:16;92431.66;;;1.41;82.65
34506;BME280;20748;42.632;23.198;2024-02-15T05:09:51;92434.72;;;1.26;82.84
34506;BME280;20748;42.632;23.198;2024-02-15T05:12:25;92432.78;;;1.33;83.03
34506;BME280;20748;42.632;23.198;2024-02-15T05:15:01;92435.69;;;1.37;81.50
34506;BME280;20748;42.632;23.198;2024-02-15T05:17:42;92436.69;;;1.36;82.20
34506;BME280;20748;42.632;23.198;2024-02-15T05:20:16;92443.41;;;1.37;82.48
34506;BME280;20748;42.632;23.198;2024-02-15T05:22:52;92438.56;;;1.40;82.43
34506;BME280;20748;42.632;23.198;2024-02-15T05:25:26;92438.25;;;1.37;82.15
34506;BME280;20748;42.632;23.198;2024-02-15T05:28:00;92442.94;;;1.40;81.54
34506;BME280;20748;42.632;23.198;2024-02-15T05:30:35;92447.91;;;1.29;81.91
34506;BME280;20748;42.632;23.198;2024-02-15T05:33:11;92453.75;;;1.25;81.77
34506;BME280;20748;42.632;23.198;2024-02-15T05:35:45;92452.97;;;1.12;81.68
34506;BME280;20748;42.632;23.198;2024-02-15T05:38:22;92455.88;;;1.16;82.53
34506;BME280;20748;42.632;23.198;2024-02-15T05:40:56;92449.50;;;1.18;82.64
34506;BME280;20748;42.632;23.198;2024-02-15T05:43:30;92454.97;;;1.22;83.29
34506;BME280;20748;42.632;23.198;2024-02-15T05:46:08;92458.31;;;1.23;83.71
34506;BME280;20748;42.632;23.198;2024-02-15T05:48:42;92460.53;;;1.31;83.69
34506;BME280;20748;42.632;23.198;2024-02-15T05:51:15;92464.50;;;1.39;83.83
34506;BME280;20748;42.632;23.198;2024-02-15T05:53:49;92465.31;;;1.39;83.34
34506;BME280;20748;42.632;23.198;2024-02-15T05:56:23;92468.19;;;1.43;83.53
34506;BME280;20748;42.632;23.198;2024-02-15T05:58:58;92472.22;;;1.39;83.00
34506;BME280;20748;42.632;23.198;2024-02-15T06:01:35;92470.53;;;1.44;83.18
34506;BME280;20748;42.632;23.198;2024-02-15T06:04:09;92473.34;;;1.43;82.43
34506;BME280;20748;42.632;23.198;2024-02-15T06:06:43;92472.63;;;1.47;82.21
34506;BME280;20748;42.632;23.198;2024-02-15T06:09:21;92471.75;;;1.54;82.34
34506;BME280;20748;42.632;23.198;2024-02-15T06:11:58;92470.97;;;1.53;82.38
34506;BME280;20748;42.632;23.198;2024-02-15T06:14:33;92481.88;;;1.60;82.08
34506;BME280;20748;42.632;23.198;2024-02-15T06:17:08;92482.75;;;1.66;82.07
34506;BME280;20748;42.632;23.198;2024-02-15T06:19:43;92482.84;;;1.71;81.57
34506;BME280;20748;42.632;23.198;2024-02-15T06:22:16;92488.22;;;1.70;81.74
34506;BME280;20748;42.632;23.198;2024-02-15T06:24:50;92487.72;;;1.56;80.45
34506;BME280;20748;42.632;23.198;2024-02-15T06:27:23;92482.66;;;1.61;80.61
34506;BME280;20748;42.632;23.198;2024-02-15T06:29:57;92494.38;;;1.69;79.92
34506;BME280;20748;42.632;23.198;2024-02-15T06:32:50;92487.00;;;1.72;80.13
34506;BME280;20748;42.632;23.198;2024-02-15T06:35:41;92485.88;;;1.68;80.49
34506;BME280;20748;42.632;23.198;2024-02-15T06:38:37;92494.00;;;1.77;80.71
34506;BME280;20748;42.632;23.198;2024-02-15T06:41:29;92499.38;;;1.76;80.10
34506;BME280;20748;42.632;23.198;2024-02-15T06:44:02;92495.38;;;1.68;79.80
34506;BME280;20748;42.632;23.198;2024-02-15T06:46:36;92500.81;;;1.54;80.29
34506;BME280;20748;42.632;23.198;2024-02-15T06:49:11;92499.97;;;1.37;79.99
34506;BME280;20748;42.632;23.198;2024-02-15T06:51:47;92503.38;;;1.54;79.75
34506;BME280;20748;42.632;23.198;2024-02-15T06:54:21;92504.91;;;1.67;80.43
34506;BME280;20748;42.632;23.198;2024-02-15T06:56:56;92506.25;;;1.70;79.79
34506;BME280;20748;42.632;23.198;2024-02-15T06:59:30;92495.16;;;1.69;78.63
34506;BME280;20748;42.632;23.198;2024-02-15T07:02:05;92502.66;;;1.88;79.72
34506;BME280;20748;42.632;23.198;2024-02-15T07:04:44;92502.56;;;1.83;79.26
34506;BME280;20748;42.632;23.198;2024-02-15T07:07:18;92508.59;;;1.88;79.77
34506;BME280;20748;42.632;23.198;2024-02-15T07:09:51;92512.91;;;2.00;79.38
34506;BME280;20748;42.632;23.198;2024-02-15T07:12:25;92509.34;;;2.01;78.88
34506;BME280;20748;42.632;23.198;2024-02-15T07:14:59;92508.59;;;1.88;78.04
34506;BME280;20748;42.632;23.198;2024-02-15T07:17:34;92510.03;;;1.96;78.67
34506;BME280;20748;42.632;23.198;2024-02-15T07:20:12;92509.25;;;1.96;78.46
34506;BME280;20748;42.632;23.198;2024-02-15T07:22:46;92507.91;;;1.93;78.68
34506;BME280;20748;42.632;23.198;2024-02-15T07:25:20;92507.28;;;2.03;78.68
34506;BME280;20748;42.632;23.198;2024-02-15T07:27:53;92501.22;;;2.09;78.46
34506;BME280;20748;42.632;23.198;2024-02-15T07:30:29;92499.44;;;2.10;78.08
34506;BME280;20748;42.632;23.198;2024-02-15T07:33:04;92500.59;;;2.02;77.45
34506;BME280;20748;42.632;23.198;2024-02-15T07:35:41;92496.69;;;1.99;77.07
34506;BME280;20748;42.632;23.198;2024-02-15T07:38:15;92491.78;;;2.15;77.52
34506;BME280;20748;42.632;23.198;2024-02-15T07:40:49;92484.91;;;2.21;77.41
34506;BME280;20748;42.632;23.198;2024-02-15T07:43:23;92481.97;;;2.29;77.64
34506;BME280;20748;42.632;23.198;2024-02-15T07:45:56;92481.66;;;2.42;77.87
34506;BME280;20748;42.632;23.198;2024-02-15T07:48:30;92483.50;;;2.47;76.81
34506;BME280;20748;42.632;23.198;2024-02-15T07:51:06;92482.19;;;2.62;76.04
34506;BME280;20748;42.632;23.198;2024-02-15T07:53:42;92477.66;;;2.69;76.54
34506;BME280;20748;42.632;23.198;2024-02-15T07:56:18;92484.56;;;2.86;76.02
34506;BME280;20748;42.632;23.198;2024-02-15T07:58:52;92478.63;;;2.85;74.39
34506;BME280;20748;42.632;23.198;2024-02-15T08:01:26;92479.66;;;2.84;74.56
34506;BME280;20748;42.632;23.198;2024-02-15T08:04:00;92485.00;;;3.00;75.05
34506;BME280;20748;42.632;23.198;2024-02-15T08:06:35;92486.13;;;3.09;73.97
34506;BME280;20748;42.632;23.198;2024-02-15T08:09:10;92470.78;;;2.97;73.14
34506;BME280;20748;42.632;23.198;2024-02-15T08:11:46;92480.22;;;3.08;74.68
34506;BME280;20748;42.632;23.198;2024-02-15T08:14:20;92485.25;;;2.98;73.62
34506;BME280;20748;42.632;23.198;2024-02-15T08:16:53;92479.78;;;2.94;72.71
34506;BME280;20748;42.632;23.198;2024-02-15T08:19:28;92486.78;;;2.99;73.92
34506;BME280;20748;42.632;23.198;2024-02-15T08:22:05;92470.59;;;3.04;73.52
34506;BME280;20748;42.632;23.198;2024-02-15T08:24:39;92480.22;;;3.08;73.03
34506;BME280;20748;42.632;23.198;2024-02-15T08:27:13;92478.44;;;3.36;74.10
34506;BME280;20748;42.632;23.198;2024-02-15T08:29:48;92473.25;;;3.54;73.27
34506;BME280;20748;42.632;23.198;2024-02-15T08:32:22;92472.97;;;3.78;73.06
34506;BME280;20748;42.632;23.198;2024-02-15T08:34:56;92473.19;;;3.76;72.92
34506;BME280;20748;42.632;23.198;2024-02-15T08:37:33;92469.63;;;3.82;72.00
34506;BME280;20748;42.632;23.198;2024-02-15T08:40:08;92472.97;;;4.10;73.32
34506;BME280;20748;42.632;23.198;2024-02-15T08:42:44;92478.59;;;4.35;70.75
34506;BME280;20748;42.632;23.198;2024-02-15T08:45:18;92474.38;;;4.56;71.02
34506;BME280;20748;42.632;23.198;2024-02-15T08:47:52;92469.19;;;4.56;69.37
34506;BME280;20748;42.632;23.198;2024-02-15T08:50:26;92470.16;;;4.88;71.42
34506;BME280;20748;42.632;23.198;2024-02-15T08:53:02;92473.81;;;4.97;68.50
34506;BME280;20748;42.632;23.198;2024-02-15T08:55:38;92470.88;;;4.83;67.80
34506;BME280;20748;42.632;23.198;2024-02-15T08:58:12;92468.06;;;4.84;69.36
34506;BME280;20748;42.632;23.198;2024-02-15T09:00:45;92466.28;;;4.85;69.19
34506;BME280;20748;42.632;23.198;2024-02-15T09:03:19;92469.88;;;4.46;69.38
34506;BME280;20748;42.632;23.198;2024-02-15T09:05:52;92466.56;;;4.51;68.82
34506;BME280;20748;42.632;23.198;2024-02-15T09:08:27;92463.06;;;4.73;70.73
34506;BME280;20748;42.632;23.198;2024-02-15T09:11:02;92464.44;;;4.86;69.57
34506;BME280;20748;42.632;23.198;2024-02-15T09:13:38;92459.41;;;5.12;70.15
34506;BME280;20748;42.632;23.198;2024-02-15T09:16:11;92458.91;;;5.20;68.65
34506;BME280;20748;42.632;23.198;2024-02-15T09:18:45;92459.00;;;5.35;67.49
34506;BME280;20748;42.632;23.198;2024-02-15T09:21:20;92455.34;;;5.31;66.64
34506;BME280;20748;42.632;23.198;2024-02-15T09:23:55;92448.63;;;5.41;67.93
34506;BME280;20748;42.632;23.198;2024-02-15T09:26:29;92451.03;;;5.58;66.54
34506;BME280;20748;42.632;23.198;2024-02-15T09:29:03;92451.25;;;5.51;65.79
34506;BME280;20748;42.632;23.198;2024-02-15T09:31:40;92444.28;;;5.57;65.94
34506;BME280;20748;42.632;23.198;2024-02-15T09:34:13;92446.63;;;5.63;67.64
34506;BME280;20748;42.632;23.198;2024-02-15T09:36:47;92449.72;;;5.55;67.56
34506;BME280;20748;42.632;23.198;2024-02-15T09:39:22;92437.31;;;5.68;67.40
34506;BME280;20748;42.632;23.198;2024-02-15T09:42:01;92440.94;;;5.67;65.74
34506;BME280;20748;42.632;23.198;2024-02-15T09:44:34;92441.81;;;6.03;67.21
34506;BME280;20748;42.632;23.198;2024-02-15T09:47:08;92443.56;;;5.98;65.71
34506;BME280;20748;42.632;23.198;2024-02-15T09:49:44;92438.38;;;5.98;66.25
34506;BME280;20748;42.632;23.198;2024-02-15T09:52:17;92444.91;;;6.06;65.70
34506;BME280;20748;42.632;23.198;2024-02-15T09:54:53;92437.13;;;6.06;66.97
34506;BME280;20748;42.632;23.198;2024-02-15T09:57:27;92435.56;;;6.20;66.85
34506;BME280;20748;42.632;23.198;2024-02-15T10:00:01;92439.47;;;6.12;64.42
34506;BME280;20748;42.632;23.198;2024-02-15T10:02:40;92439.22;;;6.03;64.63
34506;BME280;20748;42.632;23.198;2024-02-15T10:05:14;92434.50;;;5.90;65.61
34506;BME280;20748;42.632;23.198;2024-02-15T10:07:48;92433.47;;;6.01;66.69
34506;BME280;20748;42.632;23.198;2024-02-15T10:10:23;92424.69;;;6.23;64.34
34506;BME280;20748;42.632;23.198;2024-02-15T10:12:58;92420.03;;;6.20;64.53
34506;BME280;20748;42.632;23.198;2024-02-15T10:15:34;92418.97;;;6.37;66.69
34506;BME280;20748;42.632;23.198;2024-02-15T10:18:10;92405.75;;;6.54;65.14
34506;BME280;20748;42.632;23.198;2024-02-15T10:20:57;92406.25;;;6.56;63.54
34506;BME280;20748;42.632;23.198;2024-02-15T10:23:31;92406.50;;;6.60;62.07
34506;BME280;20748;42.632;23.198;2024-02-15T10:26:20;92400.00;;;6.78;61.59
34506;BME280;20748;42.632;23.198;2024-02-15T10:29:05;92398.94;;;6.84;63.60
34506;BME280;20748;42.632;23.198;2024-02-15T10:31:53;92393.75;;;6.79;62.68
34506;BME280;20748;42.632;23.198;2024-02-15T10:34:27;92399.19;;;6.77;62.80
34506;BME280;20748;42.632;23.198;2024-02-15T10:37:10;92386.19;;;6.93;62.39
34506;BME280;20748;42.632;23.198;2024-02-15T10:39:44;92394.66;;;7.19;62.61
34506;BME280;20748;42.632;23.198;2024-02-15T10:42:20;92394.91;;;7.23;62.07
34506;BME280;20748;42.632;23.198;2024-02-15T10:44:54;92386.47;;;7.47;60.21
34506;BME280;20748;42.632;23.198;2024-02-15T10:47:28;92383.63;;;7.43;59.83
34506;BME280;20748;42.632;23.198;2024-02-15T10:50:03;92385.50;;;7.32;59.65
34506;BME280;20748;42.632;23.198;2024-02-15T10:52:43;92384.53;;;7.18;59.95
34506;BME280;20748;42.632;23.198;2024-02-15T10:55:29;92391.03;;;7.15;60.25
34506;BME280;20748;42.632;23.198;2024-02-15T10:58:08;92378.00;;;7.31;60.01
34506;BME280;20748;42.632;23.198;2024-02-15T11:00:45;92381.91;;;7.23;59.82
34506;BME280;20748;42.632;23.198;2024-02-15T11:03:24;92382.69;;;7.23;60.92
34506;BME280;20748;42.632;23.198;2024-02-15T11:06:00;92377.00;;;7.21;60.49
34506;BME280;20748;42.632;23.198;2024-02-15T11:08:35;92376.94;;;7.77;60.92
34506;BME280;20748;42.632;23.198;2024-02-15T11:11:09;92382.31;;;7.86;58.30
34506;BME280;20748;42.632;23.198;2024-02-15T11:13:48;92380.41;;;7.62;58.85
34506;BME280;20748;42.632;23.198;2024-02-15T11:16:41;92378.47;;;7.78;58.70
34506;BME280;20748;42.632;23.198;2024-02-15T11:19:43;92369.03;;;7.92;57.96
34506;BME280;20748;42.632;23.198;2024-02-15T11:22:20;92366.97;;;7.89;56.83
34506;BME280;20748;42.632;23.198;2024-02-15T11:24:55;92371.19;;;7.80;57.97
34506;BME280;20748;42.632;23.198;2024-02-15T11:27:30;92364.75;;;8.07;57.37
34506;BME280;20748;42.632;23.198;2024-02-15T11:30:06;92367.06;;;8.38;54.46
34506;BME280;20748;42.632;23.198;2024-02-15T11:32:46;92362.66;;;8.39;56.76
34506;BME280;20748;42.632;23.198;2024-02-15T11:35:23;92362.56;;;8.49;55.28
34506;BME280;20748;42.632;23.198;2024-02-15T11:37:58;92366.44;;;8.22;56.03
34506;BME280;20748;42.632;23.198;2024-02-15T11:41:03;92364.38;;;8.49;56.82
34506;BME280;20748;42.632;23.198;2024-02-15T11:43:49;92371.38;;;8.53;57.98
34506;BME280;20748;42.632;23.198;2024-02-15T11:46:29;92361.44;;;8.61;54.97
34506;BME280;20748;42.632;23.198;2024-02-15T11:49:05;92359.88;;;8.59;55.98
34506;BME280;20748;42.632;23.198;2024-02-15T11:51:39;92362.44;;;8.89;56.70
34506;BME280;20748;42.632;23.198;2024-02-15T11:54:22;92361.53;;;8.99;54.80
34506;BME280;20748;42.632;23.198;2024-02-15T11:56:56;92359.81;;;9.33;54.81
34506;BME280;20748;42.632;23.198;2024-02-15T11:59:43;92368.06;;;9.40;54.01
34506;BME280;20748;42.632;23.198;2024-02-15T12:02:46;92366.72;;;9.23;53.63
34506;BME280;20748;42.632;23.198;2024-02-15T12:05:38;92367.03;;;8.73;53.15
34506;BME280;20748;42.632;23.198;2024-02-15T12:08:29;92359.56;;;8.91;53.09
34506;BME280;20748;42.632;23.198;2024-02-15T12:11:21;92355.66;;;9.32;53.92
34506;BME280;20748;42.632;23.198;2024-02-15T12:14:12;92336.97;;;9.49;53.24
34506;BME280;20748;42.632;23.198;2024-02-15T12:17:04;92345.31;;;9.84;53.32
34506;BME280;20748;42.632;23.198;2024-02-15T12:20:00;92344.03;;;9.82;51.25
34506;BME280;20748;42.632;23.198;2024-02-15T12:22:40;92346.50;;;9.73;53.43
34506;BME280;20748;42.632;23.198;2024-02-15T12:25:16;92347.34;;;9.68;51.37
34506;BME280;20748;42.632;23.198;2024-02-15T12:27:55;92348.53;;;9.57;52.72
34506;BME280;20748;42.632;23.198;2024-02-15T12:30:34;92341.66;;;9.47;51.45
34506;BME280;20748;42.632;23.198;2024-02-15T12:33:11;92342.16;;;9.49;53.01
34506;BME280;20748;42.632;23.198;2024-02-15T12:35:47;92346.72;;;9.38;52.17
34506;BME280;20748;42.632;23.198;2024-02-15T12:38:22;92333.63;;;9.43;52.22
34506;BME280;20748;42.632;23.198;2024-02-15T12:40:56;92339.56;;;9.30;54.02
34506;BME280;20748;42.632;23.198;2024-02-15T12:43:30;92330.31;;;9.57;52.40
34506;BME280;20748;42.632;23.198;2024-02-15T12:46:03;92337.84;;;9.77;51.62
34506;BME280;20748;42.632;23.198;2024-02-15T12:48:41;92324.22;;;10.14;52.55
34506;BME280;20748;42.632;23.198;2024-02-15T12:51:17;92332.53;;;10.16;51.42
34506;BME280;20748;42.632;23.198;2024-02-15T12:53:51;92325.63;;;10.39;50.39
34506;BME280;20748;42.632;23.198;2024-02-15T12:56:24;92322.25;;;10.39;50.93
34506;BME280;20748;42.632;23.198;2024-02-15T12:58:58;92324.81;;;10.72;51.15
34506;BME280;20748;42.632;23.198;2024-02-15T13:01:33;92326.06;;;10.74;49.55
34506;BME280;20748;42.632;23.198;2024-02-15T13:04:07;92326.69;;;10.38;50.45
34506;BME280;20748;42.632;23.198;2024-02-15T13:06:42;92332.81;;;9.81;49.83
34506;BME280;20748;42.632;23.198;2024-02-15T13:09:16;92326.94;;;9.56;52.55
34506;BME280;20748;42.632;23.198;2024-02-15T13:11:50;92326.69;;;9.91;51.63
34506;BME280;20748;42.632;23.198;2024-02-15T13:14:26;92331.31;;;9.61;52.44
34506;BME280;20748;42.632;23.198;2024-02-15T13:17:01;92330.97;;;9.48;51.51
34506;BME280;20748;42.632;23.198;2024-02-15T13:19:35;92325.03;;;9.04;51.41
34506;BME280;20748;42.632;23.198;2024-02-15T13:22:10;92324.09;;;8.95;53.34
34506;BME280;20748;42.632;23.198;2024-02-15T13:24:44;92327.38;;;9.06;52.93
34506;BME280;20748;42.632;23.198;2024-02-15T13:27:18;92321.53;;;9.33;53.08
34506;BME280;20748;42.632;23.198;2024-02-15T13:29:52;92323.41;;;9.47;52.41
34506;BME280;20748;42.632;23.198;2024-02-15T13:32:26;92313.84;;;9.23;51.72
34506;BME280;20748;42.632;23.198;2024-02-15T13:35:01;92309.41;;;9.04;52.11
34506;BME280;20748;42.632;23.198;2024-02-15T13:37:42;92316.13;;;8.86;53.10
34506;BME280;20748;42.632;23.198;2024-02-15T13:40:16;92310.53;;;8.98;53.36
34506;BME280;20748;42.632;23.198;2024-02-15T13:42:54;92312.00;;;9.04;54.37
34506;BME280;20748;42.632;23.198;2024-02-15T13:45:31;92310.69;;;9.07;52.53
34506;BME280;20748;42.632;23.198;2024-02-15T13:48:06;92298.31;;;8.98;53.46